Time;durP1;ratioP1;P1;durP2;ratioP2;P2;SDS_P1;SDS_P2;PMS_P1;PMS_P2;Temp;Humidity;BMP_temperature;BMP_pressure;BME280_temperature;BME280_humidity;BME280_pressure;Samples;Min_cycle;Max_cycle;Signal;HPM_P1;HPM_P2
2023/07/09 00:00:09;;;;;;;;;9.80;8.00;;;;;22.96;46.65;100064.28;5033143;28;8840;-60
2023/07/09 00:02:36;;;;;;;;;8.00;7.60;;;;;22.95;46.87;100065.34;5033197;28;8930;-60
2023/07/09 00:05:04;;;;;;;;;12.80;9.40;;;;;22.91;47.09;100066.78;5024188;28;8818;-59
2023/07/09 00:07:32;;;;;;;;;9.80;8.20;;;;;22.89;46.85;100063.41;5013134;28;8854;-57
2023/07/09 00:10:00;;;;;;;;;10.40;10.40;;;;;22.85;47.00;100064.84;5014611;28;8818;-58
2023/07/09 00:12:28;;;;;;;;;9.00;8.20;;;;;22.81;47.38;100058.13;5013443;28;8830;-58
2023/07/09 00:14:56;;;;;;;;;10.20;9.00;;;;;22.78;47.29;100061.25;5013115;28;8814;-59
2023/07/09 00:17:25;;;;;;;;;11.00;11.00;;;;;22.73;47.26;100060.97;5026321;28;8816;-57
2023/07/09 00:19:52;;;;;;;;;11.00;10.00;;;;;22.70;47.17;100064.09;5032394;28;8950;-58
2023/07/09 00:22:21;;;;;;;;;10.00;9.80;;;;;22.63;47.32;100069.47;5032579;28;8824;-58
2023/07/09 00:24:50;;;;;;;;;1.80;1.80;;;;;22.60;47.44;100069.00;5032602;28;8844;-60
2023/07/09 00:27:18;;;;;;;;;8.80;8.80;;;;;22.58;47.75;100073.81;5032915;28;8845;-60
2023/07/09 00:29:45;;;;;;;;;8.80;8.20;;;;;22.56;47.64;100073.16;5023668;28;8945;-60
2023/07/09 00:32:15;;;;;;;;;10.20;8.00;;;;;22.49;48.11;100083.13;5018671;28;8827;-59
2023/07/09 00:34:48;;;;;;;;;11.00;9.00;;;;;22.41;48.53;100075.09;5028125;28;8936;-58
2023/07/09 00:37:15;;;;;;;;;8.20;8.00;;;;;22.33;47.88;100067.06;5013048;28;8915;-57
2023/07/09 00:39:43;;;;;;;;;8.00;8.00;;;;;22.25;48.07;100072.63;5014173;28;8819;-60
2023/07/09 00:42:11;;;;;;;;;11.00;8.40;;;;;22.16;48.33;100071.06;5012677;28;8814;-58
2023/07/09 00:44:40;;;;;;;;;9.00;8.80;;;;;22.06;48.43;100065.09;5013084;28;8883;-59
2023/07/09 00:47:08;;;;;;;;;11.20;9.40;;;;;21.97;48.58;100067.13;5021643;28;8848;-59
2023/07/09 00:49:36;;;;;;;;;11.00;11.00;;;;;21.89;49.36;100063.66;5031777;28;8846;-58
2023/07/09 00:52:03;;;;;;;;;8.20;8.20;;;;;21.82;49.29;100060.88;5031763;28;8827;-59
2023/07/09 00:54:31;;;;;;;;;10.20;10.20;;;;;21.76;49.25;100068.94;5024379;28;8843;-59
2023/07/09 00:56:59;;;;;;;;;12.20;11.80;;;;;21.72;49.31;100067.63;5012921;28;8838;-59
2023/07/09 00:59:28;;;;;;;;;7.40;7.40;;;;;21.65;49.27;100072.09;5027608;28;8944;-60
2023/07/09 01:01:56;;;;;;;;;9.20;8.00;;;;;21.60;49.32;100069.13;5032332;28;8912;-60
2023/07/09 01:04:24;;;;;;;;;5.80;5.40;;;;;21.56;49.37;100063.22;5022169;28;8822;-57
2023/07/09 01:06:51;;;;;;;;;10.40;10.00;;;;;21.56;49.31;100062.41;5027205;28;8828;-58
2023/07/09 01:09:19;;;;;;;;;10.40;10.40;;;;;21.54;49.64;100070.72;5029203;28;8869;-60
2023/07/09 01:11:47;;;;;;;;;8.20;8.00;;;;;21.51;49.82;100070.25;5020707;28;8831;-58
2023/07/09 01:14:16;;;;;;;;;11.00;11.00;;;;;21.49;49.24;100067.72;5035804;28;8820;-58
2023/07/09 01:16:45;;;;;;;;;8.00;8.00;;;;;21.47;49.81;100068.94;5022896;28;8822;-59
2023/07/09 01:19:13;;;;;;;;;10.00;8.00;;;;;21.47;49.49;100069.78;5035982;28;8844;-57
2023/07/09 01:21:41;;;;;;;;;8.00;8.00;;;;;21.46;49.95;100069.97;5035850;28;8832;-59
2023/07/09 01:24:10;;;;;;;;;9.20;7.40;;;;;21.45;49.56;100071.00;5035950;28;8836;-58
2023/07/09 01:26:38;;;;;;;;;8.80;7.80;;;;;21.43;49.65;100073.06;5035760;28;8820;-59
2023/07/09 01:29:08;;;;;;;;;10.00;8.00;;;;;21.40;50.28;100066.16;5035464;28;8925;-59
2023/07/09 01:31:35;;;;;;;;;8.60;8.20;;;;;21.38;49.69;100075.47;5035435;28;8824;-60
2023/07/09 01:34:03;;;;;;;;;10.60;9.00;;;;;21.36;49.94;100064.00;5035421;28;8809;-58
2023/07/09 01:36:31;;;;;;;;;12.00;10.40;;;;;21.37;49.78;100066.53;5035401;28;8815;-58
2023/07/09 01:38:59;;;;;;;;;8.00;8.00;;;;;21.35;50.30;100071.28;5035706;28;8832;-58
2023/07/09 01:41:26;;;;;;;;;12.40;10.20;;;;;21.34;50.07;100064.19;5035007;28;8862;-57
2023/07/09 01:43:55;;;;;;;;;7.60;7.20;;;;;21.33;50.28;100061.69;5035065;28;8820;-59
2023/07/09 01:46:22;;;;;;;;;11.40;10.40;;;;;21.31;50.34;100069.13;5034653;28;8855;-60
2023/07/09 01:48:52;;;;;;;;;11.20;9.80;;;;;21.27;49.80;100060.53;5034447;28;8963;-58
2023/07/09 01:51:22;;;;;;;;;9.60;8.00;;;;;21.24;50.02;100071.75;5018187;28;8807;-59
2023/07/09 01:53:50;;;;;;;;;10.00;10.00;;;;;21.20;50.38;100070.44;5015361;28;8935;-59
2023/07/09 01:56:18;;;;;;;;;8.80;8.80;;;;;21.19;50.25;100070.66;5023099;28;9549;-59
2023/07/09 01:58:45;;;;;;;;;12.60;10.00;;;;;21.15;50.39;100077.44;5025415;28;8826;-57
2023/07/09 02:01:15;;;;;;;;;10.00;10.00;;;;;21.11;50.69;100073.44;5014838;28;8836;-58
2023/07/09 02:03:43;;;;;;;;;10.00;8.40;;;;;21.07;50.77;100074.81;5034450;28;8828;-59
2023/07/09 02:06:11;;;;;;;;;11.20;8.40;;;;;21.05;50.61;100074.19;5034777;28;8843;-57
2023/07/09 02:08:38;;;;;;;;;7.60;7.00;;;;;21.03;50.46;100068.13;5034592;28;8846;-57
2023/07/09 02:11:06;;;;;;;;;13.60;12.20;;;;;20.99;50.93;100069.50;5034994;28;9544;-57
2023/07/09 02:13:34;;;;;;;;;7.80;7.80;;;;;20.93;51.07;100062.97;5035146;28;8832;-59
2023/07/09 02:16:02;;;;;;;;;10.60;8.00;;;;;20.91;51.11;100066.88;5031754;28;8820;-58
2023/07/09 02:18:30;;;;;;;;;10.00;8.80;;;;;20.86;50.68;100066.53;5019370;28;8843;-60
2023/07/09 02:20:58;;;;;;;;;9.20;8.40;;;;;20.84;50.85;100065.91;5034804;28;9608;-59
2023/07/09 02:23:26;;;;;;;;;8.00;7.40;;;;;20.81;51.11;100066.28;5034918;28;9638;-58
2023/07/09 02:25:54;;;;;;;;;8.80;8.00;;;;;20.77;51.14;100065.81;5035189;28;8840;-58
2023/07/09 02:28:21;;;;;;;;;10.40;10.00;;;;;20.73;51.28;100069.06;5028517;28;8919;-58
2023/07/09 02:30:49;;;;;;;;;13.00;11.80;;;;;20.70;51.43;100066.69;5015838;28;8830;-58
2023/07/09 02:33:20;;;;;;;;;8.80;8.80;;;;;20.64;51.50;100078.25;5014839;28;8826;-58
2023/07/09 02:35:48;;;;;;;;;11.80;11.20;;;;;20.55;51.88;100075.81;5014950;28;8830;-58
2023/07/09 02:38:16;;;;;;;;;9.60;9.60;;;;;20.44;51.90;100079.81;5014948;28;8840;-60
2023/07/09 02:40:43;;;;;;;;;9.40;9.40;;;;;20.36;51.99;100077.16;5014578;28;8837;-58
2023/07/09 02:43:11;;;;;;;;;10.40;10.40;;;;;20.31;51.70;100090.38;5014887;28;8854;-58
2023/07/09 02:45:39;;;;;;;;;13.20;11.00;;;;;20.27;52.10;100089.06;5014745;28;8834;-58
2023/07/09 02:48:06;;;;;;;;;13.00;11.20;;;;;20.24;52.08;100086.72;5015687;28;9487;-58
2023/07/09 02:50:34;;;;;;;;;12.80;11.40;;;;;20.24;52.49;100084.00;5030234;28;8828;-58
2023/07/09 02:53:02;;;;;;;;;7.00;7.00;;;;;20.27;52.10;100083.66;5034043;28;8850;-58
2023/07/09 02:55:30;;;;;;;;;15.60;14.00;;;;;20.29;52.14;100087.00;5034288;28;8968;-58
2023/07/09 02:57:58;;;;;;;;;11.40;10.40;;;;;20.28;51.72;100088.03;5022656;28;8821;-58
2023/07/09 03:00:25;;;;;;;;;8.40;8.40;;;;;20.27;52.06;100089.06;5026931;28;8853;-58
2023/07/09 03:02:53;;;;;;;;;11.40;11.00;;;;;20.29;52.23;100087.00;5019957;28;9538;-58
2023/07/09 03:05:21;;;;;;;;;10.40;10.40;;;;;20.32;52.10;100096.66;5014627;28;8900;-58
2023/07/09 03:07:49;;;;;;;;;10.40;9.80;;;;;20.35;52.09;100090.84;5015312;28;8822;-58
2023/07/09 03:10:16;;;;;;;;;14.40;12.60;;;;;20.35;51.80;100089.00;5014373;28;8829;-61
2023/07/09 03:12:44;;;;;;;;;11.60;10.60;;;;;20.29;52.11;100092.44;5019812;28;9709;-57
2023/07/09 03:15:12;;;;;;;;;12.80;11.00;;;;;20.22;52.75;100101.44;5034485;28;9501;-58
2023/07/09 03:17:39;;;;;;;;;14.20;13.60;;;;;20.15;52.26;100100.47;5024668;28;8823;-58
2023/07/09 03:20:09;;;;;;;;;13.00;12.80;;;;;20.09;52.80;100109.31;5030435;28;8862;-58
2023/07/09 03:22:37;;;;;;;;;9.20;9.20;;;;;20.04;52.48;100108.97;5034320;28;9010;-58
2023/07/09 03:25:04;;;;;;;;;11.20;10.80;;;;;19.99;52.48;100109.50;5033971;28;8879;-58
2023/07/09 03:27:32;;;;;;;;;16.20;13.00;;;;;19.99;52.96;100114.03;5033393;28;8854;-58
2023/07/09 03:30:01;;;;;;;;;13.00;12.60;;;;;19.97;52.59;100122.34;5033564;28;8819;-58
2023/07/09 03:32:28;;;;;;;;;11.60;11.00;;;;;19.98;52.95;100107.81;5033632;28;8969;-58
2023/07/09 03:34:56;;;;;;;;;13.80;13.80;;;;;20.00;53.14;100122.00;5033780;28;8900;-58
2023/07/09 03:37:23;;;;;;;;;11.20;11.20;;;;;20.01;52.39;100123.66;5033715;28;8840;-60
2023/07/09 03:39:51;;;;;;;;;12.20;11.20;;;;;19.99;52.78;100122.16;5034242;28;8840;-58
2023/07/09 03:42:19;;;;;;;;;14.80;13.40;;;;;19.95;53.00;100124.38;5033754;28;8850;-59
2023/07/09 03:44:47;;;;;;;;;15.80;15.00;;;;;19.92;52.95;100119.34;5033586;28;8836;-58
2023/07/09 03:47:15;;;;;;;;;9.20;7.00;;;;;19.90;52.59;100118.69;5033389;28;8845;-60
2023/07/09 03:49:42;;;;;;;;;13.20;13.00;;;;;19.90;52.71;100117.81;5033436;28;9006;-60
2023/07/09 03:52:10;;;;;;;;;15.00;15.00;;;;;19.89;52.96;100127.78;5033388;28;8844;-58
2023/07/09 03:54:38;;;;;;;;;8.20;8.20;;;;;19.91;52.57;100124.91;5033588;28;8848;-58
2023/07/09 03:57:07;;;;;;;;;9.60;9.60;;;;;19.92;52.76;100123.88;5033411;28;8831;-60
2023/07/09 03:59:35;;;;;;;;;13.00;12.40;;;;;19.92;52.60;100126.59;5033451;28;8823;-58
2023/07/09 04:02:03;;;;;;;;;13.00;13.00;;;;;19.94;53.01;100121.88;5032768;28;8839;-58
2023/07/09 04:04:31;;;;;;;;;9.00;6.80;;;;;19.95;52.81;100124.38;5032769;28;8974;-58
2023/07/09 04:06:59;;;;;;;;;12.00;9.80;;;;;19.99;53.09;100123.00;5013720;28;8834;-57
2023/07/09 04:09:26;;;;;;;;;13.00;12.60;;;;;20.01;52.84;100129.06;5013427;28;8960;-58
2023/07/09 04:11:54;;;;;;;;;13.40;13.00;;;;;20.05;52.80;100127.75;5014370;28;8842;-60
2023/07/09 04:14:22;;;;;;;;;13.40;13.00;;;;;20.08;52.59;100127.38;5013013;28;8818;-59
2023/07/09 04:16:50;;;;;;;;;11.60;10.80;;;;;20.13;52.62;100125.00;5013207;28;8834;-59
2023/07/09 04:19:17;;;;;;;;;12.80;10.80;;;;;20.19;52.88;100129.66;5013233;28;8930;-59
2023/07/09 04:21:45;;;;;;;;;11.20;11.20;;;;;20.27;52.76;100121.53;5018517;28;9640;-58
2023/07/09 04:24:13;;;;;;;;;13.60;13.60;;;;;20.31;52.78;100122.84;5032795;28;8855;-60
2023/07/09 04:26:41;;;;;;;;;11.20;10.60;;;;;20.32;52.58;100119.09;5032963;28;8842;-58
2023/07/09 04:29:09;;;;;;;;;13.00;11.80;;;;;20.29;52.67;100133.00;5033079;28;8816;-59
2023/07/09 04:31:37;;;;;;;;;16.00;14.00;;;;;20.25;52.45;100128.97;5032716;28;8839;-58
2023/07/09 04:34:05;;;;;;;;;11.20;10.40;;;;;20.24;53.15;100129.16;5033091;28;8832;-58
2023/07/09 04:36:33;;;;;;;;;11.20;11.20;;;;;20.24;52.55;100132.69;5032969;28;8893;-59
2023/07/09 04:39:00;;;;;;;;;11.00;10.00;;;;;20.24;52.86;100131.88;5032038;28;8900;-58
2023/07/09 04:41:28;;;;;;;;;8.20;8.20;;;;;20.29;52.89;100129.44;5030381;28;8824;-59
2023/07/09 04:43:56;;;;;;;;;11.00;10.20;;;;;20.36;52.39;100133.13;5014385;28;8945;-58
2023/07/09 04:46:24;;;;;;;;;16.00;14.00;;;;;20.43;52.33;100134.94;5012817;28;8838;-60
2023/07/09 04:48:52;;;;;;;;;12.60;10.20;;;;;20.50;52.18;100135.91;5013274;28;8841;-59
2023/07/09 04:51:20;;;;;;;;;12.40;9.60;;;;;20.59;52.06;100129.41;5012856;28;8968;-60
2023/07/09 04:53:51;;;;;;;;;10.20;10.00;;;;;20.68;51.97;100131.00;5013066;28;8830;-58
2023/07/09 04:56:19;;;;;;;;;12.00;10.60;;;;;20.77;51.72;100138.03;5013395;28;8858;-59
2023/07/09 04:58:47;;;;;;;;;8.80;8.40;;;;;20.88;51.60;100135.78;5016138;28;8822;-59
2023/07/09 05:01:16;;;;;;;;;11.80;11.00;;;;;20.99;51.27;100138.06;5012542;28;8815;-59
2023/07/09 05:03:44;;;;;;;;;13.60;11.20;;;;;21.11;51.39;100130.31;5012477;28;8895;-59
2023/07/09 05:06:12;;;;;;;;;13.00;11.40;;;;;21.22;51.04;100141.56;5012633;28;8862;-60
2023/07/09 05:08:42;;;;;;;;;4.20;4.20;;;;;21.29;51.23;100137.09;5030920;28;8824;-58
2023/07/09 05:11:12;;;;;;;;;9.20;8.00;;;;;21.42;51.42;100139.97;5031977;28;8913;-58
2023/07/09 05:13:40;;;;;;;;;11.20;10.60;;;;;21.51;50.67;100148.84;5030802;28;8836;-59
2023/07/09 05:16:08;;;;;;;;;13.60;13.00;;;;;21.55;51.00;100142.03;5028570;28;8823;-57
2023/07/09 05:18:36;;;;;;;;;14.00;13.60;;;;;21.61;50.76;100141.28;5023650;28;8808;-59
2023/07/09 05:21:04;;;;;;;;;14.00;13.60;;;;;21.70;50.55;100138.31;5032489;28;8881;-59
2023/07/09 05:23:31;;;;;;;;;11.80;11.40;;;;;21.81;51.14;100140.56;5031764;28;8812;-58
2023/07/09 05:25:59;;;;;;;;;13.20;12.80;;;;;21.90;50.63;100134.00;5032373;28;8844;-58
2023/07/09 05:28:27;;;;;;;;;13.80;11.00;;;;;22.00;50.34;100131.00;5032606;28;8867;-58
2023/07/09 05:30:55;;;;;;;;;14.00;13.40;;;;;22.15;50.10;100137.25;5031508;28;8840;-59
2023/07/09 05:33:23;;;;;;;;;15.60;12.80;;;;;22.30;50.05;100132.59;5030852;28;8928;-58
2023/07/09 05:35:51;;;;;;;;;14.80;12.00;;;;;22.46;50.09;100137.81;5030718;28;8820;-60
2023/07/09 05:38:18;;;;;;;;;17.80;15.80;;;;;22.58;49.61;100142.53;5031569;28;8856;-58
2023/07/09 05:40:46;;;;;;;;;12.60;12.00;;;;;22.71;49.74;100136.38;5030838;28;8831;-59
2023/07/09 05:43:14;;;;;;;;;10.60;10.60;;;;;22.82;49.44;100133.13;5031524;28;8824;-59
2023/07/09 05:45:42;;;;;;;;;10.60;9.00;;;;;22.93;49.41;100138.88;5031488;28;8835;-59
2023/07/09 05:48:09;;;;;;;;;11.60;11.00;;;;;23.07;48.91;100127.09;5020189;28;8840;-58
2023/07/09 05:50:37;;;;;;;;;12.60;12.00;;;;;23.17;49.41;100140.38;5013871;28;8813;-59
2023/07/09 05:53:05;;;;;;;;;12.00;10.00;;;;;23.28;48.87;100145.28;5015857;28;8844;-59
2023/07/09 05:55:33;;;;;;;;;14.20;12.20;;;;;23.40;48.79;100140.94;5015480;28;8871;-58
2023/07/09 05:58:00;;;;;;;;;13.20;12.00;;;;;23.52;48.58;100147.53;5024992;28;8843;-58
2023/07/09 06:00:28;;;;;;;;;11.80;10.40;;;;;23.64;49.18;100145.91;5034891;28;8842;-59
2023/07/09 06:02:57;;;;;;;;;12.60;10.40;;;;;23.73;48.59;100147.41;5021405;28;8906;-58
2023/07/09 06:05:25;;;;;;;;;11.20;11.20;;;;;23.81;48.29;100145.38;5015046;28;8897;-59
2023/07/09 06:07:53;;;;;;;;;10.80;10.00;;;;;23.93;48.57;100148.41;5017269;28;8875;-58
2023/07/09 06:10:21;;;;;;;;;10.80;9.40;;;;;24.05;48.49;100144.06;5014973;28;8830;-59
2023/07/09 06:12:49;;;;;;;;;12.00;11.20;;;;;24.19;48.43;100146.63;5016336;28;8964;-59
2023/07/09 06:15:17;;;;;;;;;12.00;11.60;;;;;24.34;47.95;100141.03;5031268;28;8816;-59
2023/07/09 06:17:45;;;;;;;;;12.40;12.40;;;;;24.48;48.17;100146.31;5023533;28;8811;-60
2023/07/09 06:20:13;;;;;;;;;12.40;12.40;;;;;24.62;47.36;100142.59;5015149;28;8946;-59
2023/07/09 06:22:41;;;;;;;;;11.60;10.00;;;;;24.78;47.45;100142.19;5015726;28;8846;-58
2023/07/09 06:25:09;;;;;;;;;12.00;10.00;;;;;24.94;47.20;100140.97;5014151;28;8835;-59
2023/07/09 06:27:36;;;;;;;;;14.40;13.00;;;;;25.07;47.05;100139.06;5014970;28;8825;-58
2023/07/09 06:30:04;;;;;;;;;11.60;11.00;;;;;25.19;46.91;100131.91;5014508;28;8865;-59
2023/07/09 06:32:32;;;;;;;;;12.80;12.20;;;;;25.31;46.37;100143.91;5014481;28;8880;-58
2023/07/09 06:35:00;;;;;;;;;14.40;14.00;;;;;25.42;46.52;100137.81;5014791;28;8810;-58
2023/07/09 06:37:29;;;;;;;;;14.00;13.80;;;;;25.54;46.70;100140.75;5014510;28;8822;-58
2023/07/09 06:39:57;;;;;;;;;14.00;13.40;;;;;25.65;45.92;100140.91;5014196;28;8838;-58
2023/07/09 06:42:24;;;;;;;;;13.60;11.00;;;;;25.75;46.89;100139.41;5014840;28;8834;-58
2023/07/09 06:44:53;;;;;;;;;10.60;10.20;;;;;25.86;46.42;100144.22;5026405;28;8854;-60
2023/07/09 06:47:20;;;;;;;;;13.00;10.80;;;;;25.95;45.78;100144.84;5025140;28;8819;-61
2023/07/09 06:49:48;;;;;;;;;14.00;13.60;;;;;26.05;46.57;100145.22;5032622;28;8952;-59
2023/07/09 06:52:16;;;;;;;;;17.60;14.80;;;;;26.16;45.70;100142.66;5032249;28;8828;-58
2023/07/09 06:54:43;;;;;;;;;9.00;7.80;;;;;26.28;45.65;100142.81;5033740;28;8854;-59
2023/07/09 06:57:11;;;;;;;;;12.40;11.00;;;;;26.41;45.62;100140.81;5032545;28;8820;-59
2023/07/09 06:59:39;;;;;;;;;11.80;10.60;;;;;26.55;45.31;100147.94;5014246;28;8957;-59
2023/07/09 07:02:07;;;;;;;;;12.60;12.40;;;;;26.66;45.38;100130.84;5013119;28;8815;-58
2023/07/09 07:04:35;;;;;;;;;10.40;10.40;;;;;26.79;45.54;100141.66;5013190;28;8818;-61
2023/07/09 07:07:03;;;;;;;;;11.80;11.00;;;;;26.91;45.50;100137.16;5016462;28;8826;-58
2023/07/09 07:09:31;;;;;;;;;11.20;10.80;;;;;27.06;45.52;100139.56;5032895;28;8828;-59
2023/07/09 07:11:58;;;;;;;;;9.60;9.60;;;;;27.19;44.60;100140.34;5033076;28;8855;-59
2023/07/09 07:14:26;;;;;;;;;14.00;13.80;;;;;27.33;45.07;100138.31;5023800;28;8830;-59
2023/07/09 07:16:54;;;;;;;;;12.00;11.40;;;;;27.43;44.77;100142.22;5024214;28;8850;-59
2023/07/09 07:19:23;;;;;;;;;15.40;14.40;;;;;27.52;44.44;100138.13;5029827;28;8812;-59
2023/07/09 07:21:52;;;;;;;;;11.40;11.40;;;;;27.63;44.11;100129.13;5033124;28;8808;-60
2023/07/09 07:24:19;;;;;;;;;13.80;12.00;;;;;27.75;44.09;100131.97;5033324;28;9550;-59
2023/07/09 07:26:47;;;;;;;;;13.80;13.00;;;;;27.90;44.00;100129.72;5033438;28;8836;-60
2023/07/09 07:29:15;;;;;;;;;15.00;13.40;;;;;28.04;44.22;100133.97;5033192;28;9510;-58
2023/07/09 07:31:43;;;;;;;;;12.60;12.60;;;;;28.14;43.58;100131.53;5033136;28;8958;-59
2023/07/09 07:34:11;;;;;;;;;13.00;11.40;;;;;28.26;43.69;100130.53;5033432;28;8828;-60
2023/07/09 07:36:39;;;;;;;;;13.80;12.60;;;;;28.36;43.97;100122.63;5033195;28;8843;-59
2023/07/09 07:39:10;;;;;;;;;12.00;12.00;;;;;28.49;43.99;100122.44;5033172;28;8858;-59
2023/07/09 07:41:38;;;;;;;;;13.80;13.00;;;;;28.63;43.32;100126.66;5032958;28;9793;-61
2023/07/09 07:44:06;;;;;;;;;14.60;13.80;;;;;28.75;43.07;100130.25;5032963;28;9624;-60
2023/07/09 07:46:34;;;;;;;;;14.80;13.60;;;;;28.87;43.29;100124.78;5033064;28;9892;-59
2023/07/09 07:49:02;;;;;;;;;13.00;12.60;;;;;29.00;43.22;100127.38;5031961;28;9536;-59
2023/07/09 07:51:30;;;;;;;;;15.40;14.00;;;;;29.14;42.94;100134.31;5018718;28;8838;-61
2023/07/09 07:53:58;;;;;;;;;14.00;13.60;;;;;29.24;42.97;100126.31;5012927;28;8838;-59
2023/07/09 07:56:27;;;;;;;;;13.60;13.00;;;;;29.34;42.87;100123.84;5013111;28;8930;-60
2023/07/09 07:58:55;;;;;;;;;10.00;9.60;;;;;29.43;42.74;100123.22;5024035;28;8848;-59
2023/07/09 08:01:23;;;;;;;;;11.20;11.20;;;;;29.52;43.02;100132.81;5032985;28;8812;-59
2023/07/09 08:03:51;;;;;;;;;16.00;15.80;;;;;29.62;42.58;100127.53;5032436;28;8820;-59
2023/07/09 08:06:19;;;;;;;;;13.00;12.00;;;;;29.73;42.75;100131.34;5030595;28;8897;-58
2023/07/09 08:08:47;;;;;;;;;16.60;15.60;;;;;29.84;42.28;100128.59;5032501;28;8835;-59
2023/07/09 08:11:15;;;;;;;;;14.60;12.40;;;;;29.96;42.34;100125.81;5032779;28;8868;-58
2023/07/09 08:13:43;;;;;;;;;15.60;15.00;;;;;30.08;42.16;100127.47;5025481;28;8836;-59
2023/07/09 08:16:12;;;;;;;;;14.80;13.00;;;;;30.18;41.88;100127.69;5012527;28;8829;-59
2023/07/09 08:18:43;;;;;;;;;16.80;14.20;;;;;30.28;41.80;100124.31;5012550;28;8846;-59
2023/07/09 08:21:10;;;;;;;;;13.60;11.40;;;;;30.39;41.53;100127.00;5014045;28;8837;-59
2023/07/09 08:23:39;;;;;;;;;13.80;13.80;;;;;30.47;41.48;100121.13;5012722;28;8854;-59
2023/07/09 08:26:07;;;;;;;;;14.00;14.00;;;;;30.55;41.27;100117.97;5012966;28;8861;-60
2023/07/09 08:28:36;;;;;;;;;16.80;15.60;;;;;30.64;41.40;100121.19;5027476;28;8935;-59
2023/07/09 08:31:04;;;;;;;;;12.40;11.60;;;;;30.75;41.21;100118.38;5012470;28;8853;-59
2023/07/09 08:33:32;;;;;;;;;17.20;16.20;;;;;30.86;40.83;100115.56;5012110;28;8826;-59
2023/07/09 08:36:00;;;;;;;;;14.00;13.00;;;;;30.96;41.35;100112.97;5012302;28;8838;-58
2023/07/09 08:38:28;;;;;;;;;13.20;12.80;;;;;31.07;40.90;100106.56;5011935;28;8814;-59
2023/07/09 08:40:56;;;;;;;;;17.60;14.80;;;;;31.20;41.29;100119.19;5012447;28;8877;-58
2023/07/09 08:43:24;;;;;;;;;13.00;12.40;;;;;31.33;40.75;100105.09;5013150;28;8814;-59
2023/07/09 08:45:52;;;;;;;;;13.40;13.00;;;;;31.47;40.46;100106.38;5012760;28;8834;-59
2023/07/09 08:48:20;;;;;;;;;12.80;11.00;;;;;31.57;40.49;100101.03;5012235;28;8814;-60
2023/07/09 08:50:48;;;;;;;;;14.20;13.40;;;;;31.68;39.94;100100.91;5016830;28;8832;-60
2023/07/09 08:53:16;;;;;;;;;13.60;13.00;;;;;31.77;40.10;100102.19;5031986;28;8808;-59
2023/07/09 08:55:44;;;;;;;;;14.00;13.20;;;;;31.88;40.20;100098.44;5028280;28;8840;-59
2023/07/09 08:58:11;;;;;;;;;12.60;11.60;;;;;32.00;39.40;100106.59;5031050;28;8851;-60
2023/07/09 09:00:41;;;;;;;;;13.80;13.00;;;;;32.12;39.98;100099.03;5013318;28;8888;-59
2023/07/09 09:03:09;;;;;;;;;16.00;15.20;;;;;32.23;39.26;100093.41;5011889;28;9522;-58
2023/07/09 09:05:37;;;;;;;;;12.00;11.80;;;;;32.36;39.10;100092.16;5013990;28;8856;-60
2023/07/09 09:08:05;;;;;;;;;11.80;11.80;;;;;32.49;39.57;100089.84;5028188;28;8916;-59
2023/07/09 09:10:35;;;;;;;;;12.40;12.20;;;;;32.61;39.33;100090.50;5030276;28;8824;-60
2023/07/09 09:13:04;;;;;;;;;15.40;14.40;;;;;32.71;39.00;100093.34;5031943;28;8836;-59
2023/07/09 09:15:32;;;;;;;;;6.60;6.60;;;;;32.79;38.76;100094.84;5031897;28;8843;-59
2023/07/09 09:18:00;;;;;;;;;16.20;15.00;;;;;32.86;39.22;100093.53;5022676;28;8832;-59
2023/07/09 09:20:28;;;;;;;;;14.80;13.20;;;;;32.96;39.00;100090.03;5028081;28;8828;-59
2023/07/09 09:22:56;;;;;;;;;15.60;14.40;;;;;33.09;38.41;100092.34;5031899;28;8816;-59
2023/07/09 09:25:24;;;;;;;;;9.20;9.00;;;;;33.23;38.52;100090.81;5032751;28;8844;-59
2023/07/09 09:27:52;;;;;;;;;10.40;10.40;;;;;33.33;38.38;100090.91;5035055;28;8840;-59
2023/07/09 09:30:20;;;;;;;;;9.60;9.00;;;;;33.41;38.09;100088.47;5035121;28;9505;-59
2023/07/09 09:32:48;;;;;;;;;9.00;9.00;;;;;33.49;38.57;100082.44;5034759;28;8981;-59
2023/07/09 09:35:16;;;;;;;;;11.40;10.20;;;;;33.62;37.92;100089.44;5034838;28;8820;-59
2023/07/09 09:37:44;;;;;;;;;13.00;11.00;;;;;33.75;37.39;100083.47;5035062;28;8844;-60
2023/07/09 09:40:12;;;;;;;;;7.40;6.40;;;;;33.87;38.22;100086.81;5034783;28;8843;-59
2023/07/09 09:42:45;;;;;;;;;10.80;10.00;;;;;33.98;37.88;100085.78;5034534;28;8836;-59
2023/07/09 09:45:13;;;;;;;;;14.00;11.00;;;;;34.08;37.02;100085.81;5034736;28;8832;-59
2023/07/09 09:47:41;;;;;;;;;11.20;10.40;;;;;34.19;37.36;100090.28;5034948;28;8924;-59
2023/07/09 09:50:09;;;;;;;;;11.80;10.60;;;;;34.27;36.95;100092.56;5034838;28;9544;-59
2023/07/09 09:52:37;;;;;;;;;12.00;11.00;;;;;34.31;37.25;100086.19;5033622;28;8898;-59
2023/07/09 09:55:05;;;;;;;;;13.40;12.60;;;;;34.39;36.69;100090.34;5014601;28;8870;-59
2023/07/09 09:57:33;;;;;;;;;10.20;10.20;;;;;34.49;36.50;100082.09;5017943;28;8822;-59
2023/07/09 10:00:02;;;;;;;;;11.40;11.00;;;;;34.62;36.04;100090.69;5034104;28;8844;-58
2023/07/09 10:02:31;;;;;;;;;11.00;9.40;;;;;34.84;36.27;100080.22;5033483;28;8820;-59
2023/07/09 10:04:59;;;;;;;;;8.40;7.60;;;;;35.11;35.84;100083.53;5032017;28;8873;-59
2023/07/09 10:07:27;;;;;;;;;14.80;11.80;;;;;35.39;35.61;100069.13;5033726;28;8828;-59
2023/07/09 10:09:55;;;;;;;;;10.40;10.40;;;;;35.68;35.12;100080.44;5032462;28;8844;-59
2023/07/09 10:12:23;;;;;;;;;11.40;11.40;;;;;35.95;34.87;100080.91;5033622;28;8848;-60
2023/07/09 10:14:52;;;;;;;;;12.20;11.20;;;;;36.20;34.07;100081.66;5034193;28;8869;-59
2023/07/09 10:17:23;;;;;;;;;10.40;10.00;;;;;36.43;33.85;100080.97;5034089;28;8820;-59
2023/07/09 10:19:51;;;;;;;;;10.00;9.00;;;;;36.62;33.81;100077.25;5017134;28;8842;-59
2023/07/09 10:22:19;;;;;;;;;9.20;9.20;;;;;36.94;33.81;100074.78;5030135;28;8838;-59
2023/07/09 10:24:47;;;;;;;;;12.00;11.40;;;;;37.28;33.35;100074.78;5032607;28;8954;-59
2023/07/09 10:27:16;;;;;;;;;10.20;10.00;;;;;37.58;33.41;100080.91;5034579;28;8820;-58
2023/07/09 10:29:44;;;;;;;;;8.40;8.40;;;;;37.84;33.11;100087.00;5034098;28;8889;-60
2023/07/09 10:32:12;;;;;;;;;10.60;8.80;;;;;38.06;32.79;100084.53;5032477;28;8871;-60
2023/07/09 10:34:40;;;;;;;;;13.00;11.40;;;;;38.19;32.62;100078.22;5032306;28;8852;-59
2023/07/09 10:37:08;;;;;;;;;11.80;11.60;;;;;38.47;32.57;100066.16;5031505;28;8824;-59
2023/07/09 10:39:39;;;;;;;;;10.60;10.60;;;;;38.75;31.39;100071.56;5031136;28;8820;-60
2023/07/09 10:42:07;;;;;;;;;10.80;10.80;;;;;39.07;31.66;100062.41;5032525;28;8836;-61
2023/07/09 10:44:35;;;;;;;;;10.60;10.00;;;;;39.28;30.98;100061.78;5032179;28;8836;-60
2023/07/09 10:47:03;;;;;;;;;11.20;10.20;;;;;39.43;31.38;100055.91;5033845;28;8832;-60
2023/07/09 10:49:35;;;;;;;;;9.40;9.40;;;;;39.74;30.94;100050.59;5013243;28;9488;-60
2023/07/09 10:52:04;;;;;;;;;10.00;9.80;;;;;40.03;30.71;100054.69;5014160;28;8870;-59
2023/07/09 10:54:32;;;;;;;;;9.60;9.00;;;;;40.26;30.61;100056.44;5013673;28;8976;-59
2023/07/09 10:57:00;;;;;;;;;11.40;11.40;;;;;40.49;30.34;100035.78;5028058;28;8847;-61
2023/07/09 10:59:28;;;;;;;;;10.00;9.00;;;;;40.71;30.42;100044.22;5033158;28;8906;-60
2023/07/09 11:01:56;;;;;;;;;11.40;10.80;;;;;40.89;30.10;100029.25;5032426;28;8824;-59
2023/07/09 11:04:25;;;;;;;;;9.40;9.00;;;;;41.00;29.93;100039.06;5032053;28;8819;-60
2023/07/09 11:06:53;;;;;;;;;10.20;10.20;;;;;41.17;29.31;100041.13;5030659;28;8828;-60
2023/07/09 11:09:21;;;;;;;;;8.00;8.00;;;;;41.40;29.13;100045.56;5031355;28;8836;-60
2023/07/09 11:11:49;;;;;;;;;10.20;10.20;;;;;41.50;29.75;100032.13;5032436;28;8916;-60
2023/07/09 11:14:17;;;;;;;;;11.00;10.20;;;;;41.60;29.10;100033.81;5032999;28;8968;-59
2023/07/09 11:16:45;;;;;;;;;9.00;8.80;;;;;41.71;29.22;100029.56;5028584;28;8824;-60
2023/07/09 11:19:13;;;;;;;;;5.80;5.80;;;;;41.82;28.69;100019.72;5024512;28;8828;-59
2023/07/09 11:21:43;;;;;;;;;11.20;10.80;;;;;41.96;29.16;100027.69;5033220;28;8952;-59
2023/07/09 11:24:11;;;;;;;;;8.60;8.60;;;;;42.02;28.77;100029.19;5032753;28;8890;-60